Furstenzell Airport


Codes: EDMF/
Name: Furstenzell Airport
City: Furstenzell
Country: Germany
Elevation: 1345 ft.

Photos at Furstenzell Airport


   Photos courtesy of SpottingLog. You can add your own sightings and photos by signing up for a free trial today.



No photos found.

Weather at Furstenzell Airport


Time (UTC)DescriptionTempratureWindCloud coverageVisibilityPressureHumidity
16-Jun-2024 00:00Moderate Rain14°C2 mph, S100%10000m1013hPa98%
16-Jun-2024 03:00Moderate Rain13°C2 mph, SW100%4627m1013hPa99%
16-Jun-2024 06:00Light Rain13°C2 mph, S100%10000m1014hPa96%
16-Jun-2024 09:00Overcast Clouds14°C2 mph, S100%10000m1014hPa87%
16-Jun-2024 12:00Broken Clouds20°C4 mph, S84%10000m1013hPa58%
16-Jun-2024 15:00Overcast Clouds20°C4 mph, SE89%10000m1012hPa59%
16-Jun-2024 18:00Broken Clouds17°C2 mph, S71%10000m1012hPa79%
16-Jun-2024 21:00Scattered Clouds13°C2 mph, NE44%10000m1014hPa88%
17-Jun-2024 00:00Scattered Clouds12°C2 mph, E47%10000m1015hPa90%
17-Jun-2024 03:00Overcast Clouds13°C2 mph, E100%10000m1016hPa88%
17-Jun-2024 06:00Overcast Clouds14°C2 mph, SE100%10000m1017hPa89%
17-Jun-2024 09:00Overcast Clouds20°C2 mph, SE96%10000m1017hPa68%
17-Jun-2024 12:00Overcast Clouds24°C4 mph, S94%10000m1015hPa52%
17-Jun-2024 15:00Broken Clouds25°C0 mph, SE65%10000m1014hPa47%
17-Jun-2024 18:00Broken Clouds20°C4 mph, NW83%10000m1016hPa79%
17-Jun-2024 21:00Overcast Clouds16°C2 mph, NW88%10000m1017hPa90%
18-Jun-2024 00:00Broken Clouds14°C2 mph, SE66%10000m1018hPa93%
18-Jun-2024 03:00Overcast Clouds13°C2 mph, NE98%10000m1018hPa94%
18-Jun-2024 06:00Broken Clouds18°C2 mph, SE77%10000m1018hPa80%
18-Jun-2024 09:00Broken Clouds23°C4 mph, SE52%10000m1017hPa65%
18-Jun-2024 12:00Broken Clouds27°C4 mph, S71%10000m1015hPa52%
18-Jun-2024 15:00Broken Clouds28°C2 mph, SW54%10000m1014hPa49%
18-Jun-2024 18:00Broken Clouds23°C0 mph, NW77%10000m1014hPa76%
18-Jun-2024 21:00Overcast Clouds19°C4 mph, N100%10000m1015hPa85%
19-Jun-2024 00:00Light Rain17°C0 mph, NW74%10000m1015hPa91%
19-Jun-2024 03:00Light Rain16°C2 mph, W100%10000m1017hPa95%
19-Jun-2024 06:00Light Rain17°C2 mph, SW100%10000m1019hPa97%
19-Jun-2024 09:00Overcast Clouds22°C7 mph, W92%10000m1019hPa71%
19-Jun-2024 12:00Overcast Clouds26°C9 mph, NW89%10000m1019hPa58%
19-Jun-2024 15:00Broken Clouds25°C9 mph, NW70%10000m1019hPa61%
19-Jun-2024 18:00Broken Clouds22°C4 mph, NW51%10000m1020hPa77%
19-Jun-2024 21:00Few Clouds17°C2 mph, NE18%10000m1022hPa89%
20-Jun-2024 00:00Few Clouds15°C2 mph, E13%10000m1022hPa94%
20-Jun-2024 03:00Clear Sky14°C4 mph, E5%10000m1020hPa95%
20-Jun-2024 06:00Clear Sky18°C7 mph, SE3%10000m1020hPa79%
20-Jun-2024 09:00Clear Sky24°C9 mph, SE0%10000m1017hPa64%
20-Jun-2024 12:00Clear Sky27°C9 mph, SE1%10000m1016hPa55%
20-Jun-2024 15:00Clear Sky29°C7 mph, SE1%10000m1014hPa55%
20-Jun-2024 18:00Scattered Clouds24°C4 mph, SE39%10000m1014hPa82%
20-Jun-2024 21:00Broken Clouds19°C4 mph, E53%10000m1012hPa87%